createdAt,value
2019-06-08T00:01:43.711Z,14.52
2019-06-08T00:04:16.498Z,14.48
2019-06-08T00:06:48.303Z,14.40
2019-06-08T00:09:20.884Z,14.54
2019-06-08T00:11:53.251Z,14.56
2019-06-08T00:14:25.554Z,14.57
2019-06-08T00:16:57.352Z,14.56
2019-06-08T00:19:29.305Z,14.64
2019-06-08T00:22:00.828Z,14.63
2019-06-08T00:24:32.356Z,14.49
2019-06-08T00:27:03.899Z,14.33
2019-06-08T00:29:35.418Z,14.36
2019-06-08T00:32:06.969Z,14.33
2019-06-08T00:34:39.548Z,14.25
2019-06-08T00:37:11.106Z,14.37
2019-06-08T00:39:42.819Z,14.36
2019-06-08T00:42:15.088Z,14.38
2019-06-08T00:44:46.744Z,14.42
2019-06-08T00:47:18.520Z,14.39
2019-06-08T00:49:51.281Z,14.38
2019-06-08T00:52:23.195Z,14.38
2019-06-08T00:54:54.959Z,14.52
2019-06-08T00:57:26.433Z,14.49
2019-06-08T00:59:57.964Z,14.54
2019-06-08T01:02:29.457Z,14.57
2019-06-08T01:05:00.880Z,14.47
2019-06-08T01:07:32.330Z,14.64
2019-06-08T01:10:04.477Z,14.67
2019-06-08T01:12:35.850Z,14.72
2019-06-08T01:15:08.843Z,14.76
2019-06-08T01:17:40.492Z,14.83
2019-06-08T01:20:12.660Z,14.91
2019-06-08T01:22:44.463Z,14.79
2019-06-08T01:25:16.697Z,14.87
2019-06-08T01:27:48.150Z,14.82
2019-06-08T01:30:22.188Z,14.91
2019-06-08T01:32:53.729Z,14.87
2019-06-08T01:35:25.325Z,14.92
2019-06-08T01:37:56.772Z,14.96
2019-06-08T01:40:29.578Z,14.85
2019-06-08T01:43:01.187Z,14.92
2019-06-08T01:45:33.363Z,14.93
2019-06-08T01:48:19.555Z,14.94
2019-06-08T01:50:40.717Z,14.95
2019-06-08T01:53:12.217Z,14.92
2019-06-08T01:55:43.930Z,14.87
2019-06-08T01:58:15.442Z,14.89
2019-06-08T02:00:46.972Z,14.87
2019-06-08T02:03:20.090Z,14.90
2019-06-08T02:05:51.570Z,14.91
2019-06-08T02:08:24.351Z,14.90
2019-06-08T02:10:55.953Z,14.91
2019-06-08T02:13:28.849Z,14.85
2019-06-08T02:16:00.700Z,14.87
2019-06-08T02:18:44.100Z,14.78
2019-06-08T02:21:05.950Z,14.89
2019-06-08T02:23:37.475Z,14.82
2019-06-08T02:26:08.987Z,14.74
2019-06-08T02:28:42.127Z,14.69
2019-06-08T02:31:13.706Z,14.70
2019-06-08T02:33:45.353Z,14.55
2019-06-08T02:36:16.870Z,14.56
2019-06-08T02:38:48.449Z,14.46
2019-06-08T02:41:20.182Z,14.36
2019-06-08T02:43:51.894Z,14.30
2019-06-08T02:46:23.442Z,14.24
2019-06-08T02:49:04.163Z,14.10
2019-06-08T02:51:31.014Z,14.02
2019-06-08T02:54:03.427Z,13.87
2019-06-08T02:56:36.747Z,13.88
2019-06-08T02:59:09.137Z,13.79
2019-06-08T03:01:42.976Z,13.81
2019-06-08T03:04:16.814Z,13.78
2019-06-08T03:06:50.130Z,13.78
2019-06-08T03:09:26.258Z,13.82
2019-06-08T03:11:57.868Z,13.73
2019-06-08T03:14:31.069Z,13.72
2019-06-08T03:17:02.988Z,13.76
2019-06-08T03:19:35.694Z,13.79
2019-06-08T03:22:10.812Z,13.81
2019-06-08T03:24:41.490Z,13.83
2019-06-08T03:27:13.230Z,13.81
2019-06-08T03:29:44.805Z,13.87
2019-06-08T03:32:16.595Z,13.97
2019-06-08T03:34:55.767Z,14.08
2019-06-08T03:37:21.801Z,14.03
2019-06-08T03:39:53.455Z,13.96
2019-06-08T03:42:24.963Z,14.00
2019-06-08T03:44:56.434Z,13.97
2019-06-08T03:47:27.948Z,13.89
2019-06-08T03:49:59.450Z,14.01
2019-06-08T03:52:30.919Z,14.09
2019-06-08T03:55:02.446Z,14.16
2019-06-08T03:57:33.936Z,14.17
2019-06-08T04:00:12.991Z,14.13
2019-06-08T04:02:42.097Z,14.09
2019-06-08T04:05:13.393Z,14.10
2019-06-08T04:07:46.448Z,14.11
2019-06-08T04:10:18.144Z,14.12
2019-06-08T04:12:50.220Z,14.12
2019-06-08T04:15:22.055Z,14.12
2019-06-08T04:17:54.418Z,14.11
2019-06-08T04:20:25.918Z,14.13
2019-06-08T04:22:57.483Z,14.13
2019-06-08T04:25:28.983Z,14.15
2019-06-08T04:28:00.417Z,14.09
2019-06-08T04:30:31.901Z,14.06
2019-06-08T04:33:05.088Z,14.12
2019-06-08T04:35:38.191Z,14.08
2019-06-08T04:38:09.743Z,14.06
2019-06-08T04:40:41.653Z,14.16
2019-06-08T04:43:14.530Z,14.11
2019-06-08T04:45:48.078Z,14.10
2019-06-08T04:48:19.460Z,14.07
2019-06-08T04:50:51.983Z,14.07
2019-06-08T04:53:23.484Z,14.02
2019-06-08T04:55:55.019Z,14.10
2019-06-08T04:58:26.469Z,14.09
2019-06-08T05:00:57.927Z,14.01
2019-06-08T05:03:29.402Z,13.91
2019-06-08T05:06:00.833Z,13.84
2019-06-08T05:08:32.450Z,13.83
2019-06-08T05:11:03.834Z,13.84
2019-06-08T05:13:35.234Z,13.82
2019-06-08T05:16:06.912Z,13.84
2019-06-08T05:18:39.177Z,13.81
2019-06-08T05:21:10.769Z,13.84
2019-06-08T05:23:43.399Z,13.84
2019-06-08T05:26:15.260Z,13.94
2019-06-08T05:28:47.395Z,13.95
2019-06-08T05:31:19.321Z,13.94
2019-06-08T05:33:50.946Z,13.93
2019-06-08T05:36:22.463Z,13.86
2019-06-08T05:38:54.006Z,13.80
2019-06-08T05:41:25.603Z,13.78
2019-06-08T05:43:57.303Z,13.81
2019-06-08T05:46:28.813Z,13.78
2019-06-08T05:49:00.391Z,13.74
2019-06-08T05:51:33.260Z,13.79
2019-06-08T05:54:04.765Z,13.81
2019-06-08T05:56:36.307Z,13.80
2019-06-08T05:59:08.004Z,13.76
2019-06-08T06:01:40.394Z,13.81
2019-06-08T06:04:12.117Z,13.84
2019-06-08T06:06:44.556Z,13.90
2019-06-08T06:09:16.284Z,13.85
2019-06-08T06:11:48.903Z,13.94
2019-06-08T06:14:20.433Z,13.93
2019-06-08T06:16:52.003Z,13.86
2019-06-08T06:19:23.477Z,13.85
2019-06-08T06:21:55.447Z,13.83
2019-06-08T06:24:26.982Z,13.87
2019-06-08T06:26:58.456Z,13.81
2019-06-08T06:29:30.026Z,13.82
2019-06-08T06:32:01.517Z,13.86
2019-06-08T06:34:33.012Z,13.87
2019-06-08T06:37:04.514Z,13.85
2019-06-08T06:39:36.059Z,13.87
2019-06-08T06:42:08.138Z,13.91
2019-06-08T06:44:39.642Z,13.93
2019-06-08T06:47:11.040Z,13.98
2019-06-08T06:49:42.565Z,13.97
2019-06-08T06:52:14.007Z,13.97
2019-06-08T06:54:46.554Z,13.99
2019-06-08T06:57:18.331Z,13.99
2019-06-08T06:59:51.974Z,13.99
2019-06-08T07:02:24.026Z,14.03
2019-06-08T07:04:57.392Z,14.10
2019-06-08T07:07:28.866Z,14.10
2019-06-08T07:10:00.423Z,14.07
2019-06-08T07:12:31.914Z,14.03
2019-06-08T07:15:03.420Z,14.01
2019-06-08T07:17:35.214Z,14.05
2019-06-08T07:20:08.275Z,13.86
2019-06-08T07:22:39.802Z,13.79
2019-06-08T07:25:11.545Z,13.77
2019-06-08T07:27:43.101Z,13.82
2019-06-08T07:30:14.894Z,13.85
2019-06-08T07:32:47.978Z,13.92
2019-06-08T07:35:20.763Z,13.95
2019-06-08T07:37:53.595Z,13.96
2019-06-08T07:40:25.963Z,14.08
2019-06-08T07:42:57.451Z,14.14
2019-06-08T07:45:28.984Z,14.12
2019-06-08T07:48:00.689Z,14.15
2019-06-08T07:50:32.310Z,14.11
2019-06-08T07:53:03.782Z,14.15
2019-06-08T07:55:35.354Z,14.08
2019-06-08T07:58:06.880Z,14.09
2019-06-08T08:00:39.311Z,14.10
2019-06-08T08:03:10.763Z,14.22
2019-06-08T08:05:42.270Z,14.28
2019-06-08T08:08:13.737Z,14.31
2019-06-08T08:10:45.443Z,14.39
2019-06-08T08:13:17.124Z,14.39
2019-06-08T08:15:49.148Z,14.38
2019-06-08T08:18:22.430Z,14.33
2019-06-08T08:20:55.129Z,14.37
2019-06-08T08:23:27.532Z,14.37
2019-06-08T08:26:01.713Z,14.43
2019-06-08T08:28:32.398Z,14.37
2019-06-08T08:31:03.897Z,14.28
2019-06-08T08:33:37.849Z,14.21
2019-06-08T08:36:08.670Z,14.20
2019-06-08T08:38:41.137Z,14.26
2019-06-08T08:41:12.800Z,14.22
2019-06-08T08:43:44.371Z,14.21
2019-06-08T08:46:17.320Z,14.15
2019-06-08T08:48:50.954Z,14.22
2019-06-08T08:51:22.337Z,14.32
2019-06-08T08:53:57.315Z,14.42
2019-06-08T08:56:27.983Z,14.49
2019-06-08T08:59:01.612Z,14.41
2019-06-08T09:01:32.947Z,14.38
2019-06-08T09:04:05.217Z,14.38
2019-06-08T09:06:38.093Z,14.34
2019-06-08T09:09:10.083Z,14.35
2019-06-08T09:11:41.787Z,14.31
2019-06-08T09:14:14.271Z,14.33
2019-06-08T09:16:47.999Z,14.34
2019-06-08T09:19:21.003Z,14.33
2019-06-08T09:21:52.934Z,14.32
2019-06-08T09:24:25.599Z,14.27
2019-06-08T09:27:00.844Z,14.22
2019-06-08T09:29:30.389Z,14.18
2019-06-08T09:32:03.531Z,14.20
2019-06-08T09:34:38.366Z,14.14
2019-06-08T09:37:08.769Z,14.10
2019-06-08T09:39:40.377Z,14.07
2019-06-08T09:42:11.903Z,14.18
2019-06-08T09:44:43.470Z,14.32
2019-06-08T09:47:15.063Z,14.24
2019-06-08T09:49:48.057Z,14.15
2019-06-08T09:52:21.717Z,14.06
2019-06-08T09:54:54.127Z,14.03
2019-06-08T09:57:28.294Z,14.01
2019-06-08T10:00:01.255Z,14.06
2019-06-08T10:02:35.340Z,14.15
2019-06-08T10:05:07.302Z,14.36
2019-06-08T10:07:39.143Z,14.48
2019-06-08T10:10:11.805Z,14.67
2019-06-08T10:12:43.374Z,15.07
2019-06-08T10:15:17.731Z,15.23
2019-06-08T10:17:48.980Z,15.23
2019-06-08T10:20:20.533Z,15.23
2019-06-08T10:22:52.073Z,15.26
2019-06-08T10:25:25.556Z,15.37
2019-06-08T10:28:04.093Z,15.54
2019-06-08T10:30:31.361Z,15.69
2019-06-08T10:33:04.746Z,15.72
2019-06-08T10:35:38.191Z,15.78
2019-06-08T10:38:11.962Z,15.99
2019-06-08T10:41:06.819Z,16.44
2019-06-08T10:43:34.337Z,16.62
2019-06-08T10:46:12.218Z,16.67
2019-06-08T10:48:39.458Z,16.77
2019-06-08T10:51:12.987Z,16.84
2019-06-08T10:53:52.675Z,17.12
2019-06-08T10:56:18.818Z,17.02
2019-06-08T10:58:50.719Z,16.97
2019-06-08T11:01:22.227Z,16.99
2019-06-08T11:03:53.796Z,16.80
2019-06-08T11:06:25.314Z,16.84
2019-06-08T11:08:58.570Z,16.68
2019-06-08T11:11:29.947Z,16.46
2019-06-08T11:14:03.524Z,16.34
2019-06-08T11:16:34.853Z,16.09
2019-06-08T11:19:07.694Z,15.67
2019-06-08T11:21:39.651Z,15.44
2019-06-08T11:24:21.621Z,15.28
2019-06-08T11:26:47.830Z,15.43
2019-06-08T11:29:19.777Z,15.64
2019-06-08T11:31:51.239Z,16.04
2019-06-08T11:34:22.677Z,16.40
2019-06-08T11:36:55.098Z,16.62
2019-06-08T11:39:28.656Z,16.87
2019-06-08T11:42:00.290Z,17.03
2019-06-08T11:44:32.037Z,17.02
2019-06-08T11:47:04.800Z,16.98
2019-06-08T11:49:36.228Z,16.82
2019-06-08T11:52:09.106Z,17.03
2019-06-08T11:54:41.337Z,17.05
2019-06-08T11:57:14.549Z,17.08
2019-06-08T11:59:48.506Z,17.10
2019-06-08T12:02:20.364Z,17.04
2019-06-08T12:04:51.957Z,16.76
2019-06-08T12:07:24.668Z,16.89
2019-06-08T12:09:58.455Z,16.57
2019-06-08T12:12:29.993Z,16.50
2019-06-08T12:15:02.895Z,16.60
2019-06-08T12:17:34.633Z,16.82
2019-06-08T12:20:08.624Z,17.05
2019-06-08T12:22:40.901Z,17.31
2019-06-08T12:25:12.568Z,17.36
2019-06-08T12:27:44.116Z,17.26
2019-06-08T12:30:19.486Z,17.42
2019-06-08T12:32:48.877Z,17.46
2019-06-08T12:35:20.665Z,17.42
2019-06-08T12:37:52.235Z,17.49
2019-06-08T12:40:24.840Z,17.38
2019-06-08T12:42:59.484Z,17.29
2019-06-08T12:45:29.547Z,17.31
2019-06-08T12:48:01.066Z,17.51
2019-06-08T12:50:33.758Z,17.65
2019-06-08T12:53:11.221Z,17.84
2019-06-08T12:55:38.706Z,17.85
2019-06-08T12:58:11.654Z,17.85
2019-06-08T13:00:44.090Z,17.90
2019-06-08T13:03:16.726Z,17.80
2019-06-08T13:05:48.224Z,18.06
2019-06-08T13:08:21.856Z,18.10
2019-06-08T13:10:54.596Z,18.20
2019-06-08T13:13:28.203Z,18.35
2019-06-08T13:16:00.062Z,18.34
2019-06-08T13:18:31.581Z,18.39
2019-06-08T13:21:15.452Z,18.45
2019-06-08T13:23:38.331Z,18.45
2019-06-08T13:26:11.483Z,18.42
2019-06-08T13:28:43.288Z,18.28
2019-06-08T13:31:17.513Z,18.31
2019-06-08T13:33:48.633Z,18.41
2019-06-08T13:36:26.070Z,18.40
2019-06-08T13:38:53.733Z,18.49
2019-06-08T13:41:29.046Z,18.47
2019-06-08T13:43:58.517Z,18.42
2019-06-08T13:46:30.118Z,18.37
2019-06-08T13:49:01.728Z,18.36
2019-06-08T13:51:33.178Z,18.50
2019-06-08T13:54:04.771Z,18.56
2019-06-08T13:56:38.474Z,18.55
2019-06-08T13:59:09.535Z,18.30
2019-06-08T14:01:41.069Z,18.23
2019-06-08T14:04:12.650Z,18.22
2019-06-08T14:06:44.200Z,18.25
2019-06-08T14:09:16.946Z,18.18
2019-06-08T14:11:49.025Z,18.18
2019-06-08T14:14:21.585Z,18.22
2019-06-08T14:16:53.965Z,18.23
2019-06-08T14:19:26.253Z,18.23
2019-06-08T14:21:58.780Z,18.20
2019-06-08T14:24:34.410Z,18.06
2019-06-08T14:27:03.528Z,18.14
2019-06-08T14:29:35.095Z,18.06
2019-06-08T14:32:07.892Z,18.03
2019-06-08T14:34:39.448Z,18.03
2019-06-08T14:37:10.951Z,18.06
2019-06-08T14:39:42.551Z,18.02
2019-06-08T14:42:18.957Z,18.07
2019-06-08T14:44:48.914Z,17.99
2019-06-08T14:47:20.922Z,17.91
2019-06-08T14:49:52.603Z,17.80
2019-06-08T14:52:25.291Z,17.72
2019-06-08T14:54:58.638Z,17.73
2019-06-08T14:57:30.887Z,17.82
2019-06-08T15:00:08.615Z,17.74
2019-06-08T15:02:37.934Z,17.67
2019-06-08T15:05:09.685Z,17.77
2019-06-08T15:07:41.183Z,17.71
2019-06-08T15:10:13.299Z,17.60
2019-06-08T15:12:44.819Z,17.64
2019-06-08T15:15:18.448Z,17.61
2019-06-08T15:17:50.419Z,17.56
2019-06-08T15:20:22.013Z,17.47
2019-06-08T15:22:53.489Z,17.55
2019-06-08T15:25:25.003Z,17.51
2019-06-08T15:28:00.730Z,17.53
2019-06-08T15:30:31.181Z,17.37
2019-06-08T15:33:02.905Z,17.37
2019-06-08T15:35:34.540Z,17.39
2019-06-08T15:38:08.342Z,17.59
2019-06-08T15:40:40.310Z,17.42
2019-06-08T15:43:11.916Z,17.58
2019-06-08T15:45:43.394Z,17.57
2019-06-08T15:48:14.927Z,17.46
2019-06-08T15:50:49.287Z,17.42
2019-06-08T15:53:19.670Z,17.39
2019-06-08T15:55:52.322Z,17.47
2019-06-08T15:58:24.790Z,17.48
2019-06-08T16:00:56.348Z,17.42
2019-06-08T16:03:27.829Z,17.22
2019-06-08T16:05:59.293Z,17.28
2019-06-08T16:08:32.212Z,17.44
2019-06-08T16:11:03.987Z,17.34
2019-06-08T16:13:35.620Z,17.29
2019-06-08T16:16:07.127Z,17.37
2019-06-08T16:18:38.561Z,17.42
2019-06-08T16:21:10.084Z,17.32
2019-06-08T16:23:41.477Z,17.37
2019-06-08T16:26:12.975Z,17.25
2019-06-08T16:28:44.435Z,17.20
2019-06-08T16:31:15.876Z,17.19
2019-06-08T16:33:47.557Z,17.18
2019-06-08T16:36:19.175Z,17.16
2019-06-08T16:38:52.824Z,17.15
2019-06-08T16:41:23.878Z,17.19
2019-06-08T16:43:55.399Z,17.18
2019-06-08T16:46:27.917Z,17.21
2019-06-08T16:48:59.808Z,17.12
2019-06-08T16:51:31.546Z,17.00
2019-06-08T16:54:03.403Z,16.99
2019-06-08T16:56:36.590Z,16.89
2019-06-08T16:59:09.592Z,16.94
2019-06-08T17:01:41.148Z,16.97
2019-06-08T17:04:13.704Z,16.97
2019-06-08T17:06:46.009Z,17.00
2019-06-08T17:09:17.825Z,16.91
2019-06-08T17:11:50.410Z,16.90
2019-06-08T17:14:24.945Z,16.91
2019-06-08T17:16:55.979Z,16.89
2019-06-08T17:19:27.482Z,16.82
2019-06-08T17:21:58.981Z,16.76
2019-06-08T17:24:32.519Z,16.75
2019-06-08T17:27:04.040Z,16.84
2019-06-08T17:29:36.820Z,16.73
2019-06-08T17:32:08.433Z,16.66
2019-06-08T17:34:40.229Z,16.64
2019-06-08T17:37:11.724Z,16.61
2019-06-08T17:39:43.370Z,16.72
2019-06-08T17:42:14.975Z,16.72
2019-06-08T17:44:46.513Z,16.62
2019-06-08T17:47:18.312Z,16.56
2019-06-08T17:49:50.158Z,16.51
2019-06-08T17:52:21.672Z,16.47
2019-06-08T17:54:53.270Z,16.43
2019-06-08T17:57:24.748Z,16.40
2019-06-08T17:59:56.275Z,16.49
2019-06-08T18:02:30.851Z,16.35
2019-06-08T18:05:01.028Z,16.31
2019-06-08T18:07:33.668Z,16.37
2019-06-08T18:10:07.247Z,16.33
2019-06-08T18:12:42.871Z,16.28
2019-06-08T18:15:12.948Z,16.36
2019-06-08T18:17:45.334Z,16.34
2019-06-08T18:20:18.513Z,16.28
2019-06-08T18:22:50.267Z,16.20
2019-06-08T18:25:22.194Z,16.24
2019-06-08T18:28:06.667Z,16.22
2019-06-08T18:30:27.685Z,16.20
2019-06-08T18:32:59.438Z,16.21
2019-06-08T18:35:31.288Z,16.18
2019-06-08T18:38:02.832Z,16.19
2019-06-08T18:40:34.954Z,16.17
2019-06-08T18:43:07.595Z,16.21
2019-06-08T18:45:41.480Z,16.21
2019-06-08T18:48:12.498Z,16.23
2019-06-08T18:50:45.397Z,16.12
2019-06-08T18:53:19.208Z,16.13
2019-06-08T18:55:50.969Z,16.13
2019-06-08T18:58:25.059Z,16.12
2019-06-08T19:00:57.545Z,16.01
2019-06-08T19:03:29.138Z,15.99
2019-06-08T19:06:01.241Z,15.94
2019-06-08T19:08:32.873Z,15.95
2019-06-08T19:11:04.413Z,15.88
2019-06-08T19:13:37.877Z,15.96
2019-06-08T19:16:09.556Z,15.88
2019-06-08T19:18:45.007Z,15.86
2019-06-08T19:21:14.634Z,15.89
2019-06-08T19:23:49.234Z,15.87
2019-06-08T19:26:20.788Z,15.82
2019-06-08T19:28:54.165Z,15.79
2019-06-08T19:31:27.475Z,15.78
2019-06-08T19:33:59.788Z,15.69
2019-06-08T19:36:31.283Z,15.79
2019-06-08T19:39:02.795Z,15.73
2019-06-08T19:41:34.850Z,15.70
2019-06-08T19:44:07.557Z,15.64
2019-06-08T19:46:40.305Z,15.67
2019-06-08T19:49:12.011Z,15.67
2019-06-08T19:51:43.537Z,15.68
2019-06-08T19:54:15.102Z,15.67
2019-06-08T19:56:52.402Z,15.74
2019-06-08T19:59:19.969Z,15.67
2019-06-08T20:01:56.331Z,15.66
2019-06-08T20:04:24.662Z,15.70
2019-06-08T20:07:00.090Z,15.56
2019-06-08T20:09:31.002Z,15.59
2019-06-08T20:12:02.601Z,15.55
2019-06-08T20:14:34.115Z,15.50
2019-06-08T20:17:07.975Z,15.60
2019-06-08T20:19:38.970Z,15.60
2019-06-08T20:22:10.462Z,15.61
2019-06-08T20:24:42.542Z,15.52
2019-06-08T20:27:17.214Z,15.56
2019-06-08T20:29:50.640Z,15.54
2019-06-08T20:32:22.176Z,15.43
2019-06-08T20:34:53.840Z,15.43
2019-06-08T20:37:25.396Z,15.44
2019-06-08T20:40:07.181Z,15.46
2019-06-08T20:42:31.005Z,15.50
2019-06-08T20:45:02.712Z,15.48
2019-06-08T20:47:36.106Z,15.50
2019-06-08T20:50:08.715Z,15.46
2019-06-08T20:52:40.717Z,15.50
2019-06-08T20:55:12.406Z,15.47
2019-06-08T20:57:45.098Z,15.41
2019-06-08T21:00:16.912Z,15.40
2019-06-08T21:02:50.308Z,15.38
2019-06-08T21:05:21.554Z,15.30
2019-06-08T21:07:55.471Z,15.30
2019-06-08T21:10:28.123Z,15.32
2019-06-08T21:12:59.648Z,15.36
2019-06-08T21:15:31.071Z,15.35
2019-06-08T21:18:02.592Z,15.31
2019-06-08T21:20:34.091Z,15.31
2019-06-08T21:23:07.936Z,15.34
2019-06-08T21:25:38.887Z,15.34
2019-06-08T21:28:10.379Z,15.27
2019-06-08T21:30:41.917Z,15.24
2019-06-08T21:33:13.401Z,15.22
2019-06-08T21:35:47.809Z,15.24
2019-06-08T21:38:23.762Z,15.14
2019-06-08T21:40:53.758Z,15.16
2019-06-08T21:43:24.722Z,15.13
2019-06-08T21:45:58.865Z,15.15
2019-06-08T21:48:29.529Z,15.13
2019-06-08T21:51:01.713Z,15.05
2019-06-08T21:53:34.466Z,15.10
2019-06-08T21:56:07.814Z,15.07
2019-06-08T21:58:39.162Z,15.04
2019-06-08T22:01:11.042Z,15.05
2019-06-08T22:03:42.665Z,15.04
2019-06-08T22:06:14.162Z,15.03
2019-06-08T22:08:47.979Z,14.93
2019-06-08T22:11:18.791Z,14.80
2019-06-08T22:13:51.276Z,14.83
2019-06-08T22:16:23.550Z,14.79
2019-06-08T22:18:55.080Z,14.79
2019-06-08T22:21:27.956Z,14.77
2019-06-08T22:24:00.828Z,14.70
2019-06-08T22:26:32.443Z,14.69
2019-06-08T22:29:03.874Z,14.66
2019-06-08T22:31:37.583Z,14.69
2019-06-08T22:34:20.298Z,14.61
2019-06-08T22:36:53.094Z,14.68
2019-06-08T22:39:27.989Z,14.71
2019-06-08T22:42:01.216Z,14.66
2019-06-08T22:44:32.214Z,14.64
2019-06-08T22:47:04.903Z,14.63
2019-06-08T22:49:38.396Z,14.61
2019-06-08T22:52:09.711Z,14.48
2019-06-08T22:54:41.275Z,14.43
2019-06-08T22:57:12.822Z,14.48
2019-06-08T22:59:44.990Z,14.53
2019-06-08T23:02:18.231Z,14.53
2019-06-08T23:04:49.978Z,14.51
2019-06-08T23:07:29.140Z,14.59
2019-06-08T23:09:59.345Z,14.54
2019-06-08T23:12:28.793Z,14.53
2019-06-08T23:15:01.578Z,14.55
2019-06-08T23:17:33.729Z,14.53
2019-06-08T23:20:08.355Z,14.54
2019-06-08T23:22:39.153Z,14.46
2019-06-08T23:25:12.322Z,14.45
2019-06-08T23:27:44.011Z,14.42
2019-06-08T23:30:18.257Z,14.41
2019-06-08T23:32:48.740Z,14.39
2019-06-08T23:35:20.208Z,14.40
2019-06-08T23:37:51.813Z,14.43
2019-06-08T23:40:23.297Z,14.48
2019-06-08T23:42:54.825Z,14.46
2019-06-08T23:45:27.160Z,14.41
2019-06-08T23:48:01.062Z,14.45
2019-06-08T23:50:32.265Z,14.44
2019-06-08T23:53:04.346Z,14.39
2019-06-08T23:55:37.231Z,14.39
2019-06-08T23:58:11.194Z,14.42
